createdAt,value
2019-04-25T00:01:47.966Z,99483.53
2019-04-25T00:04:18.724Z,99472.77
2019-04-25T00:06:47.918Z,99474.41
2019-04-25T00:09:18.764Z,99473.34
2019-04-25T00:11:48.909Z,99461.72
2019-04-25T00:14:18.160Z,99463.00
2019-04-25T00:16:47.672Z,99454.16
2019-04-25T00:19:16.954Z,99452.25
2019-04-25T00:22:11.783Z,99448.00
2019-04-25T00:24:58.792Z,99464.95
2019-04-25T00:27:27.967Z,99460.69
2019-04-25T00:29:57.676Z,99463.08
2019-04-25T00:32:26.836Z,99468.02
2019-04-25T00:34:55.905Z,99459.23
2019-04-25T00:37:25.028Z,99464.05
2019-04-25T00:39:54.141Z,99464.50
2019-04-25T00:42:23.361Z,99468.17
2019-04-25T00:44:52.561Z,99468.84
2019-04-25T00:47:21.712Z,99484.95
2019-04-25T00:49:52.387Z,99486.55
2019-04-25T00:52:22.778Z,99489.92
2019-04-25T00:54:53.435Z,99502.95
2019-04-25T00:57:22.762Z,99493.84
2019-04-25T01:00:06.151Z,99487.17
2019-04-25T01:02:39.435Z,99488.55
2019-04-25T01:05:09.233Z,99499.24
2019-04-25T01:07:38.391Z,99509.97
2019-04-25T01:10:27.979Z,99510.94
2019-04-25T01:12:57.200Z,99502.28
2019-04-25T01:15:26.991Z,99495.66
2019-04-25T01:17:56.259Z,99487.28
2019-04-25T01:20:25.384Z,99490.80
2019-04-25T01:22:56.980Z,99482.84
2019-04-25T01:25:25.767Z,99473.61
2019-04-25T01:27:54.983Z,99472.45
2019-04-25T01:30:25.749Z,99469.38
2019-04-25T01:32:55.413Z,99473.91
2019-04-25T01:35:33.551Z,99475.73
2019-04-25T01:38:10.881Z,99468.31
2019-04-25T01:40:53.079Z,99459.20
2019-04-25T01:43:40.275Z,99465.54
2019-04-25T01:46:11.119Z,99460.78
2019-04-25T01:48:40.229Z,99459.16
2019-04-25T01:51:09.365Z,99470.25
2019-04-25T01:53:38.523Z,99491.41
2019-04-25T01:56:07.968Z,99501.28
2019-04-25T01:58:37.220Z,99509.83
2019-04-25T02:01:06.473Z,99515.61
2019-04-25T02:03:35.709Z,99503.96
2019-04-25T02:06:05.246Z,99492.42
2019-04-25T02:08:34.521Z,99486.97
2019-04-25T02:11:14.321Z,99500.06
2019-04-25T02:13:43.786Z,99165.57
2019-04-25T02:19:04.045Z,99527.58
2019-04-25T02:21:33.534Z,99526.13
2019-04-25T02:24:04.348Z,99523.34
2019-04-25T02:26:34.064Z,99537.80
2019-04-25T02:29:04.676Z,99546.95
2019-04-25T02:31:34.767Z,99552.21
2019-04-25T02:34:08.136Z,99552.28
2019-04-25T02:36:35.260Z,99564.67
2019-04-25T02:39:09.150Z,99569.13
2019-04-25T02:41:38.300Z,99577.22
2019-04-25T02:44:09.894Z,99567.64
2019-04-25T02:46:51.526Z,99566.77
2019-04-25T02:49:48.517Z,99569.89
2019-04-25T02:52:24.714Z,99560.70
2019-04-25T02:54:55.690Z,99567.05
2019-04-25T02:57:25.142Z,99572.04
2019-04-25T02:59:55.730Z,99567.17
2019-04-25T03:02:25.377Z,99570.62
2019-04-25T03:04:54.815Z,99564.41
2019-04-25T03:07:24.759Z,99558.75
2019-04-25T03:09:54.758Z,99556.30
2019-04-25T03:12:32.453Z,99548.84
2019-04-25T03:14:55.168Z,99558.16
2019-04-25T03:17:24.813Z,99557.35
2019-04-25T03:20:19.069Z,99563.17
2019-04-25T03:22:48.296Z,99572.48
2019-04-25T03:25:17.862Z,99573.86
2019-04-25T03:27:46.968Z,99570.38
2019-04-25T03:30:17.990Z,99568.22
2019-04-25T03:32:47.045Z,99554.09
2019-04-25T03:35:16.148Z,99555.84
2019-04-25T03:37:45.284Z,99554.94
2019-04-25T03:40:14.410Z,99551.52
2019-04-25T03:42:43.964Z,99552.64
2019-04-25T03:45:13.977Z,99547.50
2019-04-25T03:47:44.056Z,99545.40
2019-04-25T03:50:13.948Z,99548.97
2019-04-25T03:52:43.671Z,99556.02
2019-04-25T03:55:14.439Z,99579.41
2019-04-25T03:57:44.366Z,99588.33
2019-04-25T04:00:14.621Z,99586.30
2019-04-25T04:02:44.390Z,99591.58
2019-04-25T04:05:14.818Z,99599.39
2019-04-25T04:07:44.144Z,99603.73
2019-04-25T04:10:15.101Z,99598.37
2019-04-25T04:12:44.391Z,99425.05
2019-04-25T04:15:14.885Z,99608.09
2019-04-25T04:17:49.808Z,99599.74
2019-04-25T04:20:40.983Z,99604.17
2019-04-25T04:23:21.020Z,99608.14
2019-04-25T04:25:50.232Z,99615.22
2019-04-25T04:28:19.355Z,99623.56
2019-04-25T04:30:48.470Z,99627.66
2019-04-25T04:33:29.557Z,99634.27
2019-04-25T04:35:48.502Z,99635.19
2019-04-25T04:38:18.120Z,99637.89
2019-04-25T04:40:47.207Z,99644.45
2019-04-25T04:43:16.556Z,99640.44
2019-04-25T04:45:46.498Z,99645.72
2019-04-25T04:48:16.662Z,99646.20
2019-04-25T04:50:45.887Z,99650.60
2019-04-25T04:53:16.020Z,99643.98
2019-04-25T04:55:45.414Z,99654.56
2019-04-25T04:58:15.057Z,99663.23
2019-04-25T05:00:45.294Z,99652.75
2019-04-25T05:03:27.716Z,99656.29
2019-04-25T05:08:47.060Z,99663.70
2019-04-25T05:11:17.043Z,99662.72
2019-04-25T05:13:47.093Z,99672.29
2019-04-25T05:16:17.732Z,99672.29
2019-04-25T05:18:46.876Z,99666.51
2019-04-25T05:21:17.060Z,99664.16
2019-04-25T05:23:46.276Z,99662.28
2019-04-25T05:26:16.314Z,99663.13
2019-04-25T05:28:46.175Z,99668.31
2019-04-25T05:31:26.742Z,99669.16
2019-04-25T05:33:55.893Z,99673.83
2019-04-25T05:36:28.975Z,99671.53
2019-04-25T05:38:58.190Z,99676.66
2019-04-25T05:41:36.262Z,99671.67
2019-04-25T05:44:05.547Z,99667.23
2019-04-25T05:46:34.669Z,99670.24
2019-04-25T05:49:05.100Z,99668.77
2019-04-25T05:51:34.472Z,99674.41
2019-04-25T05:54:04.153Z,99668.00
2019-04-25T05:56:33.759Z,99675.84
2019-04-25T05:59:03.639Z,99678.83
2019-04-25T06:01:35.814Z,99684.93
2019-04-25T06:04:05.829Z,99678.20
2019-04-25T06:06:36.775Z,99680.69
2019-04-25T06:09:38.247Z,99681.92
2019-04-25T06:12:41.682Z,99681.37
2019-04-25T06:15:11.379Z,99678.44
2019-04-25T06:18:00.025Z,99689.80
2019-04-25T06:20:34.318Z,99691.00
2019-04-25T06:23:18.965Z,99697.52
2019-04-25T06:25:48.036Z,99701.81
2019-04-25T06:28:19.435Z,99700.35
2019-04-25T06:30:49.368Z,99698.58
2019-04-25T06:33:18.630Z,99707.30
2019-04-25T06:35:47.717Z,99710.09
2019-04-25T06:38:16.853Z,99716.51
2019-04-25T06:40:46.175Z,99711.91
2019-04-25T06:43:15.341Z,99708.38
2019-04-25T06:46:02.025Z,99711.83
2019-04-25T06:48:45.559Z,99710.52
2019-04-25T06:51:14.747Z,99705.59
2019-04-25T06:53:47.151Z,99706.13
2019-04-25T06:56:16.273Z,99702.41
2019-04-25T06:58:45.413Z,99703.03
2019-04-25T07:01:14.554Z,99700.86
2019-04-25T07:03:44.265Z,99702.39
2019-04-25T07:06:14.805Z,99701.20
2019-04-25T07:08:44.744Z,99697.92
2019-04-25T07:11:14.416Z,99703.59
2019-04-25T07:13:43.934Z,99714.38
2019-04-25T07:16:13.462Z,99700.62
2019-04-25T07:18:43.626Z,99699.26
2019-04-25T07:21:14.198Z,99698.34
2019-04-25T07:23:46.152Z,99701.02
2019-04-25T07:26:24.120Z,99714.42
2019-04-25T07:29:13.446Z,99699.66
2019-04-25T07:31:50.688Z,99703.55
2019-04-25T07:36:49.029Z,99678.69
2019-04-25T07:39:18.143Z,99680.72
2019-04-25T07:41:47.276Z,99687.11
2019-04-25T07:44:16.393Z,99682.27
2019-04-25T07:46:45.525Z,99677.48
2019-04-25T07:49:14.666Z,99675.09
2019-04-25T07:51:45.419Z,99686.45
2019-04-25T07:54:14.619Z,99682.48
2019-04-25T07:56:43.867Z,99680.67
2019-04-25T07:59:13.866Z,99688.31
2019-04-25T08:01:43.679Z,99687.73
2019-04-25T08:04:13.647Z,99690.41
2019-04-25T08:06:44.528Z,99701.25
2019-04-25T08:09:15.446Z,99701.37
2019-04-25T08:11:44.586Z,99700.48
2019-04-25T08:14:25.463Z,99699.28
2019-04-25T08:16:57.022Z,99709.19
2019-04-25T08:19:26.341Z,99699.66
2019-04-25T08:21:56.952Z,99692.91
2019-04-25T08:24:27.118Z,99708.02
2019-04-25T08:26:56.934Z,99705.64
2019-04-25T08:29:26.448Z,99700.66
2019-04-25T08:31:55.657Z,99706.00
2019-04-25T08:34:24.763Z,99699.95
2019-04-25T08:36:54.399Z,99703.09
2019-04-25T08:39:24.183Z,99705.55
2019-04-25T08:41:54.691Z,99711.05
2019-04-25T08:44:24.221Z,99697.49
2019-04-25T08:46:54.015Z,99690.57
2019-04-25T08:49:38.274Z,99698.84
2019-04-25T08:52:07.738Z,99702.97
2019-04-25T08:55:14.314Z,99709.05
2019-04-25T08:57:58.626Z,99713.03
2019-04-25T09:00:44.835Z,99719.23
2019-04-25T09:03:16.786Z,99709.96
2019-04-25T09:05:47.913Z,99725.78
2019-04-25T09:08:17.010Z,99721.06
2019-04-25T09:10:46.154Z,99733.64
2019-04-25T09:13:15.296Z,99726.39
2019-04-25T09:15:45.740Z,99718.03
2019-04-25T09:18:14.918Z,99719.63
2019-04-25T09:20:46.648Z,99724.30
2019-04-25T09:23:14.896Z,99733.19
2019-04-25T09:25:45.808Z,99723.69
2019-04-25T09:28:14.879Z,99645.78
2019-04-25T09:30:44.842Z,99734.73
2019-04-25T09:33:15.063Z,99732.53
2019-04-25T09:35:45.901Z,99748.80
2019-04-25T09:38:14.998Z,99741.99
2019-04-25T09:40:45.160Z,99738.02
2019-04-25T09:43:14.833Z,99747.89
2019-04-25T09:45:50.454Z,99740.73
2019-04-25T09:48:42.356Z,99736.88
2019-04-25T09:51:25.263Z,99736.41
2019-04-25T09:54:00.673Z,99734.86
2019-04-25T09:56:34.397Z,99735.58
2019-04-25T09:59:26.494Z,99729.00
2019-04-25T10:01:48.276Z,99734.86
2019-04-25T10:04:17.366Z,99737.03
2019-04-25T10:06:47.578Z,99730.94
2019-04-25T10:09:18.273Z,99735.70
2019-04-25T10:11:47.440Z,99736.56
2019-04-25T10:14:41.929Z,99742.98
2019-04-25T10:17:11.049Z,99743.56
2019-04-25T10:19:41.139Z,99734.66
2019-04-25T10:22:10.263Z,99736.75
2019-04-25T10:24:39.720Z,99742.85
2019-04-25T10:27:08.882Z,99735.64
2019-04-25T10:29:44.487Z,99738.41
2019-04-25T10:32:11.281Z,99725.25
2019-04-25T10:34:41.139Z,99734.89
2019-04-25T10:37:10.659Z,99721.98
2019-04-25T10:39:40.211Z,99713.05
2019-04-25T10:42:09.402Z,99709.05
2019-04-25T10:44:39.244Z,99710.50
2019-04-25T10:47:09.285Z,99716.12
2019-04-25T10:49:39.829Z,99716.80
2019-04-25T10:52:09.610Z,99712.20
2019-04-25T10:54:39.697Z,99707.31
2019-04-25T10:57:09.047Z,99698.27
2019-04-25T10:59:54.274Z,99696.68
2019-04-25T11:02:15.085Z,99694.57
2019-04-25T11:04:54.624Z,99708.38
2019-04-25T11:07:23.707Z,99704.59
2019-04-25T11:09:53.974Z,99698.85
2019-04-25T11:12:23.733Z,99701.33
2019-04-25T11:14:53.687Z,99684.06
2019-04-25T11:17:24.312Z,99680.61
2019-04-25T11:19:54.312Z,99688.37
2019-04-25T11:22:24.492Z,99687.03
2019-04-25T11:24:53.636Z,99676.48
2019-04-25T11:27:23.982Z,99676.73
2019-04-25T11:29:54.842Z,99678.27
2019-04-25T11:32:27.213Z,99679.47
2019-04-25T11:34:57.337Z,99678.47
2019-04-25T11:37:28.266Z,99673.52
2019-04-25T11:40:09.574Z,99667.87
2019-04-25T11:42:38.881Z,99662.98
2019-04-25T11:45:08.626Z,99669.27
2019-04-25T11:47:39.416Z,99666.28
2019-04-25T11:50:09.384Z,99667.58
2019-04-25T11:52:38.518Z,99665.02
2019-04-25T11:55:08.428Z,99666.75
2019-04-25T11:57:37.842Z,99657.48
2019-04-25T12:00:07.076Z,99666.51
2019-04-25T12:02:36.201Z,99670.59
2019-04-25T12:05:05.572Z,99660.11
2019-04-25T12:07:34.713Z,99661.92
2019-04-25T12:10:07.348Z,99657.89
2019-04-25T12:12:37.324Z,99642.98
2019-04-25T12:15:06.676Z,99643.17
2019-04-25T12:17:35.822Z,99641.72
2019-04-25T12:20:05.098Z,99630.08
2019-04-25T12:22:34.412Z,99630.64
2019-04-25T12:25:04.678Z,99628.42
2019-04-25T12:27:33.831Z,99625.89
2019-04-25T12:30:05.132Z,99625.06
2019-04-25T12:32:35.246Z,99626.03
2019-04-25T12:35:06.186Z,99616.12
2019-04-25T12:37:35.525Z,99608.22
2019-04-25T12:40:06.329Z,99607.06
2019-04-25T12:42:35.442Z,99601.70
2019-04-25T12:45:20.791Z,99605.55
2019-04-25T12:47:50.766Z,99606.52
2019-04-25T12:50:20.080Z,99612.25
2019-04-25T12:52:49.213Z,99614.61
2019-04-25T12:55:18.772Z,99605.50
2019-04-25T12:57:48.219Z,99612.02
2019-04-25T13:00:22.105Z,99604.56
2019-04-25T13:02:51.670Z,99607.53
2019-04-25T13:05:21.777Z,99589.05
2019-04-25T13:07:52.309Z,99588.76
2019-04-25T13:10:23.608Z,99586.49
2019-04-25T13:12:55.292Z,99585.14
2019-04-25T13:15:25.766Z,99584.88
2019-04-25T13:17:54.718Z,99594.20
2019-04-25T13:20:23.882Z,99592.31
2019-04-25T13:22:53.345Z,99590.27
2019-04-25T13:25:24.255Z,99593.88
2019-04-25T13:28:15.531Z,99583.73
2019-04-25T13:31:15.797Z,99587.89
2019-04-25T13:34:07.563Z,99581.05
2019-04-25T13:36:36.814Z,99577.49
2019-04-25T13:39:10.347Z,99570.69
2019-04-25T13:41:39.471Z,99563.12
2019-04-25T13:44:09.263Z,99555.95
2019-04-25T13:46:38.599Z,99559.13
2019-04-25T13:49:09.291Z,99555.28
2019-04-25T13:51:38.591Z,99548.91
2019-04-25T13:54:07.731Z,99550.17
2019-04-25T13:56:40.447Z,99543.19
2019-04-25T13:59:07.807Z,99536.30
2019-04-25T14:01:37.130Z,99534.28
2019-04-25T14:04:06.641Z,99536.03
2019-04-25T14:06:35.955Z,99522.14
2019-04-25T14:09:09.211Z,99512.31
2019-04-25T14:11:38.538Z,99518.70
2019-04-25T14:14:07.679Z,99504.84
2019-04-25T14:16:59.369Z,99510.00
2019-04-25T14:19:48.129Z,99492.34
2019-04-25T14:22:17.277Z,99494.64
2019-04-25T14:24:46.457Z,99498.94
2019-04-25T14:27:17.215Z,99487.28
2019-04-25T14:29:46.391Z,99486.72
2019-04-25T14:32:16.252Z,99492.02
2019-04-25T14:34:45.408Z,99482.42
2019-04-25T14:37:14.529Z,99470.17
2019-04-25T14:39:43.674Z,99475.45
2019-04-25T14:42:12.805Z,99481.94
2019-04-25T14:44:41.964Z,99480.94
2019-04-25T14:47:11.154Z,99469.13
2019-04-25T14:49:40.281Z,99466.66
2019-04-25T14:52:09.411Z,99463.59
2019-04-25T14:54:54.067Z,99455.95
2019-04-25T14:57:26.170Z,99459.77
2019-04-25T14:59:58.082Z,99459.42
2019-04-25T15:02:29.971Z,99454.40
2019-04-25T15:04:59.222Z,99456.35
2019-04-25T15:07:28.369Z,99452.79
2019-04-25T15:09:57.520Z,99441.48
2019-04-25T15:12:26.914Z,99452.65
2019-04-25T15:14:56.051Z,99449.58
2019-04-25T15:17:26.380Z,99444.44
2019-04-25T15:19:55.586Z,99438.29
2019-04-25T15:22:25.582Z,99436.97
2019-04-25T15:24:54.846Z,99429.98
2019-04-25T15:27:25.094Z,99435.84
2019-04-25T15:29:54.404Z,99430.30
2019-04-25T15:32:27.501Z,99438.41
2019-04-25T15:34:58.464Z,99437.86
2019-04-25T15:37:33.184Z,99434.91
2019-04-25T15:40:10.344Z,99429.36
2019-04-25T15:43:04.652Z,99440.44
2019-04-25T15:45:51.406Z,99437.00
2019-04-25T15:48:20.594Z,99433.27
2019-04-25T15:50:49.773Z,99432.74
2019-04-25T15:53:18.894Z,99425.73
2019-04-25T15:55:48.246Z,99430.38
2019-04-25T15:58:17.346Z,99420.53
2019-04-25T16:00:47.372Z,99418.66
2019-04-25T16:03:16.582Z,99419.22
2019-04-25T16:05:45.716Z,99405.70
2019-04-25T16:08:14.973Z,99401.27
2019-04-25T16:10:44.196Z,99403.86
2019-04-25T16:13:13.586Z,99411.09
2019-04-25T16:15:42.722Z,99401.16
2019-04-25T16:18:11.883Z,99405.80
2019-04-25T16:20:41.026Z,99405.32
2019-04-25T16:23:10.162Z,99304.48
2019-04-25T16:25:39.293Z,99397.87
2019-04-25T16:28:08.392Z,99400.56
2019-04-25T16:30:38.619Z,99398.09
2019-04-25T16:33:08.125Z,99397.12
2019-04-25T16:35:37.856Z,99396.63
2019-04-25T16:38:07.291Z,99392.88
2019-04-25T16:40:36.464Z,99394.72
2019-04-25T16:43:08.083Z,99391.23
2019-04-25T16:45:38.906Z,99393.92
2019-04-25T16:48:08.026Z,99390.03
2019-04-25T16:50:37.291Z,99394.14
2019-04-25T16:53:06.507Z,99389.50
2019-04-25T16:55:36.627Z,99388.53
2019-04-25T16:58:06.315Z,99386.44
2019-04-25T17:01:03.625Z,99391.34
2019-04-25T17:03:35.321Z,99384.37
2019-04-25T17:06:05.327Z,99382.77
2019-04-25T17:08:35.565Z,99374.45
2019-04-25T17:11:04.882Z,99371.61
2019-04-25T17:13:35.952Z,99374.55
2019-04-25T17:16:17.141Z,99367.67
2019-04-25T17:18:54.014Z,99368.68
2019-04-25T17:21:23.312Z,99359.47
2019-04-25T17:23:52.446Z,99352.84
2019-04-25T17:26:21.647Z,99359.27
2019-04-25T17:28:52.570Z,99355.45
2019-04-25T17:31:43.770Z,99356.16
2019-04-25T17:34:30.778Z,99355.92
2019-04-25T17:37:17.315Z,99357.23
2019-04-25T17:39:50.153Z,99355.45
2019-04-25T17:42:19.293Z,99351.40
2019-04-25T17:44:48.478Z,99349.52
2019-04-25T17:47:17.585Z,99343.11
2019-04-25T17:49:46.709Z,99342.20
2019-04-25T17:52:15.859Z,99340.42
2019-04-25T17:54:45.011Z,99343.06
2019-04-25T17:57:14.147Z,99335.41
2019-04-25T17:59:43.459Z,99333.42
2019-04-25T18:02:12.955Z,99332.91
2019-04-25T18:04:42.547Z,99333.83
2019-04-25T18:07:11.739Z,99327.73
2019-04-25T18:09:40.924Z,99328.19
2019-04-25T18:12:10.035Z,99326.78
2019-04-25T18:14:39.151Z,99326.23
2019-04-25T18:17:08.362Z,99322.76
2019-04-25T18:19:56.543Z,99316.77
2019-04-25T18:22:47.425Z,99317.28
2019-04-25T18:25:26.075Z,99318.45
2019-04-25T18:28:14.189Z,99316.66
2019-04-25T18:30:45.502Z,99327.93
2019-04-25T18:33:39.680Z,99325.20
2019-04-25T18:36:35.043Z,99326.84
2019-04-25T18:39:22.329Z,99330.33
2019-04-25T18:41:59.627Z,99334.45
2019-04-25T18:44:28.800Z,99329.52
2019-04-25T18:46:58.012Z,99331.92
2019-04-25T18:49:27.211Z,99340.09
2019-04-25T18:51:58.322Z,99346.72
2019-04-25T18:54:47.415Z,99343.27
2019-04-25T18:57:33.809Z,99349.61
2019-04-25T19:00:04.906Z,99350.42
2019-04-25T19:02:49.161Z,99345.55
2019-04-25T19:05:41.039Z,99350.06
2019-04-25T19:08:10.196Z,99352.47
2019-04-25T19:10:39.644Z,99351.75
2019-04-25T19:13:12.771Z,99347.05
2019-04-25T19:15:40.331Z,99350.34
2019-04-25T19:18:10.236Z,99346.80
2019-04-25T19:20:40.013Z,99352.53
2019-04-25T19:23:09.540Z,99359.36
2019-04-25T19:25:40.142Z,99359.53
2019-04-25T19:28:09.577Z,99354.25
2019-04-25T19:30:39.748Z,99355.76
2019-04-25T19:33:09.152Z,99345.87
2019-04-25T19:35:39.518Z,99240.09
2019-04-25T19:38:09.396Z,99347.97
2019-04-25T19:40:46.478Z,99342.59
2019-04-25T19:43:23.597Z,99342.80
2019-04-25T19:45:52.707Z,99333.21
2019-04-25T19:48:21.864Z,99338.16
2019-04-25T19:50:51.004Z,99342.53
2019-04-25T19:53:20.130Z,99345.22
2019-04-25T19:55:49.710Z,99354.56
2019-04-25T19:58:18.969Z,99352.23
2019-04-25T20:00:48.702Z,99354.34
2019-04-25T20:03:22.822Z,99357.58
2019-04-25T20:06:17.024Z,99352.75
2019-04-25T20:08:52.853Z,99362.87
2019-04-25T20:11:38.815Z,99364.94
2019-04-25T20:14:07.926Z,99363.50
2019-04-25T20:16:44.907Z,99365.91
2019-04-25T20:19:15.040Z,99357.95
2019-04-25T20:21:44.592Z,99361.35
2019-04-25T20:24:14.666Z,99366.34
2019-04-25T20:26:44.888Z,99352.33
2019-04-25T20:29:14.136Z,99354.77
2019-04-25T20:31:45.173Z,99022.08
2019-04-25T20:34:14.200Z,99351.04
2019-04-25T20:36:43.372Z,99351.59
2019-04-25T20:39:12.640Z,99347.13
2019-04-25T20:41:41.784Z,99346.03
2019-04-25T20:44:10.926Z,99346.67
2019-04-25T20:46:40.052Z,99346.28
2019-04-25T20:49:09.179Z,99343.38
2019-04-25T20:51:38.354Z,99346.30
2019-04-25T20:54:07.838Z,99340.88
2019-04-25T20:56:37.028Z,99337.02
2019-04-25T20:59:06.160Z,99336.44
2019-04-25T21:01:35.290Z,99341.39
2019-04-25T21:04:12.951Z,99341.00
2019-04-25T21:06:37.938Z,99343.20
2019-04-25T21:09:07.824Z,99360.97
2019-04-25T21:11:37.001Z,99425.70
2019-04-25T21:14:23.819Z,99435.38
2019-04-25T21:16:59.771Z,99403.60
2019-04-25T21:19:31.526Z,99433.47
2019-04-25T21:22:01.051Z,99429.21
2019-04-25T21:24:30.371Z,99442.03
2019-04-25T21:26:59.533Z,99448.12
2019-04-25T21:29:28.717Z,99458.91
2019-04-25T21:31:58.844Z,99467.48
2019-04-25T21:34:29.634Z,99476.10
2019-04-25T21:36:59.772Z,99474.41
2019-04-25T21:39:42.820Z,99488.07
2019-04-25T21:42:31.994Z,99501.05
2019-04-25T21:45:02.463Z,99500.97
2019-04-25T21:47:31.792Z,99503.95
2019-04-25T21:50:03.039Z,99512.13
2019-04-25T21:52:32.456Z,99516.78
2019-04-25T21:55:01.890Z,99516.75
2019-04-25T21:57:31.295Z,99530.45
2019-04-25T22:00:07.472Z,99536.97
2019-04-25T22:02:32.031Z,99545.34
2019-04-25T22:05:01.317Z,99548.34
2019-04-25T22:07:31.820Z,99544.95
2019-04-25T22:10:02.015Z,99546.83
2019-04-25T22:12:31.134Z,99551.67
2019-04-25T22:15:01.420Z,99548.98
2019-04-25T22:17:30.709Z,99547.18
2019-04-25T22:20:00.215Z,99557.35
2019-04-25T22:22:29.529Z,99561.71
2019-04-25T22:24:58.726Z,99569.72
2019-04-25T22:27:32.397Z,99561.66
2019-04-25T22:30:01.619Z,99567.14
2019-04-25T22:32:44.319Z,99575.55
2019-04-25T22:35:32.411Z,99576.22
2019-04-25T22:38:02.881Z,99583.03
2019-04-25T22:40:32.350Z,99591.34
2019-04-25T22:43:01.715Z,99591.95
2019-04-25T22:45:30.929Z,99590.28
2019-04-25T22:48:00.537Z,99596.36
2019-04-25T22:50:31.219Z,99598.39
2019-04-25T22:53:01.290Z,99595.52
2019-04-25T22:55:31.577Z,99597.32
2019-04-25T22:58:01.252Z,99588.38
2019-04-25T23:00:35.859Z,99597.18
2019-04-25T23:03:10.068Z,99587.84
2019-04-25T23:05:49.586Z,99586.64
2019-04-25T23:08:18.913Z,99589.47
2019-04-25T23:10:48.290Z,99584.92
2019-04-25T23:13:17.423Z,99589.92
2019-04-25T23:15:46.644Z,99582.91
2019-04-25T23:18:16.056Z,99587.38
2019-04-25T23:20:45.167Z,99596.72
2019-04-25T23:23:14.765Z,99592.25
2019-04-25T23:26:14.671Z,99586.58
2019-04-25T23:28:44.755Z,99595.52
2019-04-25T23:31:24.043Z,99596.72
2019-04-25T23:33:53.443Z,99586.17
2019-04-25T23:36:22.648Z,99591.61
2019-04-25T23:38:51.789Z,99580.73
2019-04-25T23:41:21.207Z,99566.72
2019-04-25T23:43:50.339Z,99567.25
2019-04-25T23:46:19.464Z,99558.47
2019-04-25T23:48:48.620Z,99552.03
2019-04-25T23:51:17.723Z,99552.56
2019-04-25T23:53:46.925Z,99556.69
2019-04-25T23:56:16.064Z,99571.88
2019-04-25T23:58:45.744Z,99587.20
